sensor_id;sensor_type;location;lat;lon;timestamp;P1;durP1;ratioP1;P2;durP2;ratioP2
6725;SDS011;3400;48.506;11.692;2022-07-10T00:00:04;4.23;;;3.93;;
6725;SDS011;3400;48.506;11.692;2022-07-10T00:02:31;4.90;;;4.47;;
6725;SDS011;3400;48.506;11.692;2022-07-10T00:04:57;4.77;;;4.37;;
6725;SDS011;3400;48.506;11.692;2022-07-10T00:07:23;4.97;;;4.40;;
6725;SDS011;3400;48.506;11.692;2022-07-10T00:09:49;6.63;;;4.73;;
6725;SDS011;3400;48.506;11.692;2022-07-10T00:12:15;4.77;;;4.10;;
6725;SDS011;3400;48.506;11.692;2022-07-10T00:14:41;4.73;;;4.33;;
6725;SDS011;3400;48.506;11.692;2022-07-10T00:17:07;5.20;;;4.60;;
6725;SDS011;3400;48.506;11.692;2022-07-10T00:19:33;4.47;;;4.10;;
6725;SDS011;3400;48.506;11.692;2022-07-10T00:21:59;5.07;;;4.57;;
6725;SDS011;3400;48.506;11.692;2022-07-10T00:24:25;5.70;;;5.00;;
6725;SDS011;3400;48.506;11.692;2022-07-10T00:26:51;5.40;;;5.00;;
6725;SDS011;3400;48.506;11.692;2022-07-10T00:29:17;5.97;;;5.43;;
6725;SDS011;3400;48.506;11.692;2022-07-10T00:31:43;6.20;;;4.80;;
6725;SDS011;3400;48.506;11.692;2022-07-10T00:34:09;5.63;;;5.13;;
6725;SDS011;3400;48.506;11.692;2022-07-10T00:36:36;7.07;;;5.27;;
6725;SDS011;3400;48.506;11.692;2022-07-10T00:39:02;6.43;;;5.50;;
6725;SDS011;3400;48.506;11.692;2022-07-10T00:41:29;5.70;;;5.20;;
6725;SDS011;3400;48.506;11.692;2022-07-10T00:43:55;5.33;;;4.87;;
6725;SDS011;3400;48.506;11.692;2022-07-10T00:46:22;5.87;;;5.43;;
6725;SDS011;3400;48.506;11.692;2022-07-10T00:48:49;5.80;;;5.40;;
6725;SDS011;3400;48.506;11.692;2022-07-10T00:51:16;4.97;;;4.57;;
6725;SDS011;3400;48.506;11.692;2022-07-10T00:53:46;4.90;;;4.50;;
6725;SDS011;3400;48.506;11.692;2022-07-10T00:56:12;4.73;;;4.17;;
6725;SDS011;3400;48.506;11.692;2022-07-10T00:58:39;4.77;;;4.37;;
6725;SDS011;3400;48.506;11.692;2022-07-10T01:01:06;5.60;;;5.20;;
6725;SDS011;3400;48.506;11.692;2022-07-10T01:03:32;5.47;;;5.10;;
6725;SDS011;3400;48.506;11.692;2022-07-10T01:05:58;5.87;;;5.43;;
6725;SDS011;3400;48.506;11.692;2022-07-10T01:08:24;6.47;;;5.87;;
6725;SDS011;3400;48.506;11.692;2022-07-10T01:10:50;5.83;;;5.33;;
6725;SDS011;3400;48.506;11.692;2022-07-10T01:13:16;5.37;;;4.83;;
6725;SDS011;3400;48.506;11.692;2022-07-10T01:15:43;5.87;;;5.40;;
6725;SDS011;3400;48.506;11.692;2022-07-10T01:18:09;5.67;;;5.17;;
6725;SDS011;3400;48.506;11.692;2022-07-10T01:20:35;5.43;;;4.93;;
6725;SDS011;3400;48.506;11.692;2022-07-10T01:23:01;6.17;;;5.27;;
6725;SDS011;3400;48.506;11.692;2022-07-10T01:25:27;5.83;;;5.30;;
6725;SDS011;3400;48.506;11.692;2022-07-10T01:27:53;6.47;;;5.77;;
6725;SDS011;3400;48.506;11.692;2022-07-10T01:30:19;6.57;;;5.50;;
6725;SDS011;3400;48.506;11.692;2022-07-10T01:32:46;7.67;;;5.83;;
6725;SDS011;3400;48.506;11.692;2022-07-10T01:35:12;5.83;;;5.13;;
6725;SDS011;3400;48.506;11.692;2022-07-10T01:37:41;7.47;;;5.57;;
6725;SDS011;3400;48.506;11.692;2022-07-10T01:40:07;5.57;;;5.17;;
6725;SDS011;3400;48.506;11.692;2022-07-10T01:42:34;5.77;;;5.27;;
6725;SDS011;3400;48.506;11.692;2022-07-10T01:45:00;6.13;;;5.63;;
6725;SDS011;3400;48.506;11.692;2022-07-10T01:47:26;6.13;;;5.63;;
6725;SDS011;3400;48.506;11.692;2022-07-10T01:49:53;8.50;;;5.90;;
6725;SDS011;3400;48.506;11.692;2022-07-10T01:52:19;6.40;;;5.80;;
6725;SDS011;3400;48.506;11.692;2022-07-10T01:54:46;5.70;;;5.30;;
6725;SDS011;3400;48.506;11.692;2022-07-10T01:57:12;6.13;;;5.63;;
6725;SDS011;3400;48.506;11.692;2022-07-10T01:59:39;6.13;;;4.93;;
6725;SDS011;3400;48.506;11.692;2022-07-10T02:02:05;6.00;;;5.50;;
6725;SDS011;3400;48.506;11.692;2022-07-10T02:04:31;5.70;;;5.03;;
6725;SDS011;3400;48.506;11.692;2022-07-10T02:07:24;5.30;;;4.83;;
6725;SDS011;3400;48.506;11.692;2022-07-10T02:09:51;6.27;;;5.07;;
6725;SDS011;3400;48.506;11.692;2022-07-10T02:12:17;5.53;;;5.03;;
6725;SDS011;3400;48.506;11.692;2022-07-10T02:14:43;6.10;;;5.07;;
6725;SDS011;3400;48.506;11.692;2022-07-10T02:17:09;6.20;;;5.60;;
6725;SDS011;3400;48.506;11.692;2022-07-10T02:19:36;6.30;;;5.70;;
6725;SDS011;3400;48.506;11.692;2022-07-10T02:22:02;5.97;;;5.50;;
6725;SDS011;3400;48.506;11.692;2022-07-10T02:24:28;6.13;;;5.53;;
6725;SDS011;3400;48.506;11.692;2022-07-10T02:26:54;6.00;;;5.50;;
6725;SDS011;3400;48.506;11.692;2022-07-10T02:29:21;7.10;;;6.40;;
6725;SDS011;3400;48.506;11.692;2022-07-10T02:31:48;5.77;;;5.37;;
6725;SDS011;3400;48.506;11.692;2022-07-10T02:34:14;6.07;;;5.57;;
6725;SDS011;3400;48.506;11.692;2022-07-10T02:36:40;6.20;;;5.60;;
6725;SDS011;3400;48.506;11.692;2022-07-10T02:39:07;5.57;;;5.17;;
6725;SDS011;3400;48.506;11.692;2022-07-10T02:41:34;6.33;;;5.73;;
6725;SDS011;3400;48.506;11.692;2022-07-10T02:44:01;6.10;;;5.60;;
6725;SDS011;3400;48.506;11.692;2022-07-10T02:46:27;5.63;;;5.23;;
6725;SDS011;3400;48.506;11.692;2022-07-10T02:48:53;7.30;;;6.20;;
6725;SDS011;3400;48.506;11.692;2022-07-10T02:51:19;6.73;;;6.03;;
6725;SDS011;3400;48.506;11.692;2022-07-10T02:53:45;6.07;;;5.67;;
6725;SDS011;3400;48.506;11.692;2022-07-10T02:56:11;7.83;;;6.33;;
6725;SDS011;3400;48.506;11.692;2022-07-10T02:58:37;6.40;;;5.87;;
6725;SDS011;3400;48.506;11.692;2022-07-10T03:01:04;6.97;;;6.37;;
6725;SDS011;3400;48.506;11.692;2022-07-10T03:03:30;6.70;;;6.17;;
6725;SDS011;3400;48.506;11.692;2022-07-10T03:05:56;6.63;;;5.80;;
6725;SDS011;3400;48.506;11.692;2022-07-10T03:08:22;5.97;;;5.47;;
6725;SDS011;3400;48.506;11.692;2022-07-10T03:10:48;6.60;;;6.00;;
6725;SDS011;3400;48.506;11.692;2022-07-10T03:13:14;6.43;;;5.83;;
6725;SDS011;3400;48.506;11.692;2022-07-10T03:15:40;6.67;;;6.17;;
6725;SDS011;3400;48.506;11.692;2022-07-10T03:18:06;6.77;;;6.17;;
6725;SDS011;3400;48.506;11.692;2022-07-10T03:20:32;7.10;;;6.50;;
6725;SDS011;3400;48.506;11.692;2022-07-10T03:22:58;6.47;;;5.97;;
6725;SDS011;3400;48.506;11.692;2022-07-10T03:25:24;7.80;;;6.47;;
6725;SDS011;3400;48.506;11.692;2022-07-10T03:27:50;6.60;;;6.00;;
6725;SDS011;3400;48.506;11.692;2022-07-10T03:30:16;7.03;;;6.30;;
6725;SDS011;3400;48.506;11.692;2022-07-10T03:32:44;7.07;;;6.47;;
6725;SDS011;3400;48.506;11.692;2022-07-10T03:35:10;6.93;;;6.20;;
6725;SDS011;3400;48.506;11.692;2022-07-10T03:37:36;6.73;;;6.23;;
6725;SDS011;3400;48.506;11.692;2022-07-10T03:40:03;7.00;;;6.00;;
6725;SDS011;3400;48.506;11.692;2022-07-10T03:42:29;7.00;;;6.40;;
6725;SDS011;3400;48.506;11.692;2022-07-10T03:44:55;7.43;;;6.73;;
6725;SDS011;3400;48.506;11.692;2022-07-10T03:47:21;7.37;;;6.77;;
6725;SDS011;3400;48.506;11.692;2022-07-10T03:49:47;7.43;;;6.67;;
6725;SDS011;3400;48.506;11.692;2022-07-10T03:52:13;7.43;;;6.73;;
6725;SDS011;3400;48.506;11.692;2022-07-10T03:54:39;7.87;;;7.07;;
6725;SDS011;3400;48.506;11.692;2022-07-10T03:57:05;7.67;;;6.97;;
6725;SDS011;3400;48.506;11.692;2022-07-10T03:59:49;7.97;;;7.33;;
6725;SDS011;3400;48.506;11.692;2022-07-10T04:02:15;8.07;;;7.37;;
6725;SDS011;3400;48.506;11.692;2022-07-10T04:04:41;8.23;;;7.43;;
6725;SDS011;3400;48.506;11.692;2022-07-10T04:07:07;8.33;;;7.60;;
6725;SDS011;3400;48.506;11.692;2022-07-10T04:09:33;8.40;;;7.70;;
6725;SDS011;3400;48.506;11.692;2022-07-10T04:11:59;8.53;;;7.30;;
6725;SDS011;3400;48.506;11.692;2022-07-10T04:14:25;9.03;;;8.23;;
6725;SDS011;3400;48.506;11.692;2022-07-10T04:16:51;8.50;;;7.63;;
6725;SDS011;3400;48.506;11.692;2022-07-10T04:19:17;7.80;;;7.10;;
6725;SDS011;3400;48.506;11.692;2022-07-10T04:21:43;8.53;;;7.83;;
6725;SDS011;3400;48.506;11.692;2022-07-10T04:24:10;8.83;;;6.97;;
6725;SDS011;3400;48.506;11.692;2022-07-10T04:26:36;7.83;;;7.03;;
6725;SDS011;3400;48.506;11.692;2022-07-10T04:29:02;8.57;;;7.87;;
6725;SDS011;3400;48.506;11.692;2022-07-10T04:31:28;8.40;;;7.70;;
6725;SDS011;3400;48.506;11.692;2022-07-10T04:33:54;8.80;;;8.10;;
6725;SDS011;3400;48.506;11.692;2022-07-10T04:36:22;8.50;;;7.80;;
6725;SDS011;3400;48.506;11.692;2022-07-10T04:38:48;8.43;;;7.73;;
6725;SDS011;3400;48.506;11.692;2022-07-10T04:41:14;9.50;;;8.70;;
6725;SDS011;3400;48.506;11.692;2022-07-10T04:43:40;9.17;;;8.30;;
6725;SDS011;3400;48.506;11.692;2022-07-10T04:46:06;9.97;;;8.80;;
6725;SDS011;3400;48.506;11.692;2022-07-10T04:48:32;9.33;;;8.43;;
6725;SDS011;3400;48.506;11.692;2022-07-10T04:50:58;10.23;;;9.33;;
6725;SDS011;3400;48.506;11.692;2022-07-10T04:53:24;11.20;;;10.20;;
6725;SDS011;3400;48.506;11.692;2022-07-10T04:55:50;10.17;;;9.37;;
6725;SDS011;3400;48.506;11.692;2022-07-10T04:58:16;8.73;;;7.93;;
6725;SDS011;3400;48.506;11.692;2022-07-10T05:00:42;12.50;;;9.57;;
6725;SDS011;3400;48.506;11.692;2022-07-10T05:03:08;9.87;;;8.97;;
6725;SDS011;3400;48.506;11.692;2022-07-10T05:05:34;10.53;;;9.63;;
6725;SDS011;3400;48.506;11.692;2022-07-10T05:08:00;10.80;;;9.70;;
6725;SDS011;3400;48.506;11.692;2022-07-10T05:10:26;13.03;;;11.47;;
6725;SDS011;3400;48.506;11.692;2022-07-10T05:12:52;10.90;;;10.00;;
6725;SDS011;3400;48.506;11.692;2022-07-10T05:15:18;13.23;;;12.03;;
6725;SDS011;3400;48.506;11.692;2022-07-10T05:17:44;11.50;;;10.50;;
6725;SDS011;3400;48.506;11.692;2022-07-10T05:20:10;12.10;;;11.07;;
6725;SDS011;3400;48.506;11.692;2022-07-10T05:22:36;13.23;;;12.13;;
6725;SDS011;3400;48.506;11.692;2022-07-10T05:25:02;12.93;;;11.83;;
6725;SDS011;3400;48.506;11.692;2022-07-10T05:27:28;12.10;;;11.10;;
6725;SDS011;3400;48.506;11.692;2022-07-10T05:29:54;12.80;;;11.60;;
6725;SDS011;3400;48.506;11.692;2022-07-10T05:32:20;12.83;;;11.63;;
6725;SDS011;3400;48.506;11.692;2022-07-10T05:34:46;15.20;;;12.33;;
6725;SDS011;3400;48.506;11.692;2022-07-10T05:37:12;12.00;;;11.00;;
6725;SDS011;3400;48.506;11.692;2022-07-10T05:39:38;13.57;;;12.17;;
6725;SDS011;3400;48.506;11.692;2022-07-10T05:42:04;13.20;;;11.97;;
6725;SDS011;3400;48.506;11.692;2022-07-10T05:44:30;12.63;;;11.47;;
6725;SDS011;3400;48.506;11.692;2022-07-10T05:46:56;11.50;;;10.43;;
6725;SDS011;3400;48.506;11.692;2022-07-10T05:49:22;12.73;;;11.53;;
6725;SDS011;3400;48.506;11.692;2022-07-10T05:51:48;11.93;;;10.83;;
6725;SDS011;3400;48.506;11.692;2022-07-10T05:54:14;13.83;;;12.63;;
6725;SDS011;3400;48.506;11.692;2022-07-10T05:56:40;13.40;;;12.20;;
6725;SDS011;3400;48.506;11.692;2022-07-10T05:59:06;12.77;;;11.67;;
6725;SDS011;3400;48.506;11.692;2022-07-10T06:01:32;12.63;;;11.53;;
6725;SDS011;3400;48.506;11.692;2022-07-10T06:03:58;12.70;;;11.60;;
6725;SDS011;3400;48.506;11.692;2022-07-10T06:06:24;13.93;;;12.23;;
6725;SDS011;3400;48.506;11.692;2022-07-10T06:08:50;14.03;;;12.63;;
6725;SDS011;3400;48.506;11.692;2022-07-10T06:11:16;12.47;;;11.47;;
6725;SDS011;3400;48.506;11.692;2022-07-10T06:13:41;12.80;;;11.70;;
6725;SDS011;3400;48.506;11.692;2022-07-10T06:16:07;13.27;;;12.07;;
6725;SDS011;3400;48.506;11.692;2022-07-10T06:18:33;12.63;;;11.53;;
6725;SDS011;3400;48.506;11.692;2022-07-10T06:20:59;12.83;;;11.63;;
6725;SDS011;3400;48.506;11.692;2022-07-10T06:23:25;11.97;;;10.77;;
6725;SDS011;3400;48.506;11.692;2022-07-10T06:25:51;12.70;;;11.70;;
6725;SDS011;3400;48.506;11.692;2022-07-10T06:28:17;12.30;;;11.30;;
6725;SDS011;3400;48.506;11.692;2022-07-10T06:30:44;11.70;;;10.70;;
6725;SDS011;3400;48.506;11.692;2022-07-10T06:33:11;12.43;;;11.33;;
6725;SDS011;3400;48.506;11.692;2022-07-10T06:35:37;12.37;;;11.27;;
6725;SDS011;3400;48.506;11.692;2022-07-10T06:38:04;12.17;;;11.03;;
6725;SDS011;3400;48.506;11.692;2022-07-10T06:40:30;12.13;;;11.13;;
6725;SDS011;3400;48.506;11.692;2022-07-10T06:42:59;11.60;;;10.00;;
6725;SDS011;3400;48.506;11.692;2022-07-10T06:45:25;9.27;;;8.20;;
6725;SDS011;3400;48.506;11.692;2022-07-10T06:47:51;10.63;;;9.70;;
6725;SDS011;3400;48.506;11.692;2022-07-10T06:50:26;10.27;;;9.27;;
6725;SDS011;3400;48.506;11.692;2022-07-10T06:52:55;11.77;;;9.93;;
6725;SDS011;3400;48.506;11.692;2022-07-10T06:55:21;11.17;;;9.80;;
6725;SDS011;3400;48.506;11.692;2022-07-10T06:57:48;10.87;;;9.77;;
6725;SDS011;3400;48.506;11.692;2022-07-10T07:00:14;10.40;;;9.50;;
6725;SDS011;3400;48.506;11.692;2022-07-10T07:02:40;11.47;;;10.27;;
6725;SDS011;3400;48.506;11.692;2022-07-10T07:05:07;10.63;;;9.73;;
6725;SDS011;3400;48.506;11.692;2022-07-10T07:07:33;10.13;;;9.20;;
6725;SDS011;3400;48.506;11.692;2022-07-10T07:09:59;10.87;;;9.97;;
6725;SDS011;3400;48.506;11.692;2022-07-10T07:12:25;10.30;;;8.87;;
6725;SDS011;3400;48.506;11.692;2022-07-10T07:14:51;9.27;;;8.47;;
6725;SDS011;3400;48.506;11.692;2022-07-10T07:17:17;8.90;;;8.10;;
6725;SDS011;3400;48.506;11.692;2022-07-10T07:19:46;8.77;;;8.00;;
6725;SDS011;3400;48.506;11.692;2022-07-10T07:22:31;7.93;;;7.17;;
6725;SDS011;3400;48.506;11.692;2022-07-10T07:25:15;11.10;;;6.43;;
6725;SDS011;3400;48.506;11.692;2022-07-10T07:27:41;8.50;;;6.37;;
6725;SDS011;3400;48.506;11.692;2022-07-10T07:30:11;7.87;;;5.70;;
6725;SDS011;3400;48.506;11.692;2022-07-10T07:32:39;8.00;;;4.90;;
6725;SDS011;3400;48.506;11.692;2022-07-10T07:35:06;4.57;;;3.30;;
6725;SDS011;3400;48.506;11.692;2022-07-10T07:37:41;5.10;;;3.07;;
6725;SDS011;3400;48.506;11.692;2022-07-10T07:40:08;5.83;;;3.50;;
6725;SDS011;3400;48.506;11.692;2022-07-10T07:42:34;2.40;;;2.20;;
6725;SDS011;3400;48.506;11.692;2022-07-10T07:45:01;3.87;;;3.03;;
6725;SDS011;3400;48.506;11.692;2022-07-10T07:47:27;6.40;;;2.87;;
6725;SDS011;3400;48.506;11.692;2022-07-10T07:49:53;5.10;;;2.70;;
6725;SDS011;3400;48.506;11.692;2022-07-10T07:52:19;4.33;;;2.73;;
6725;SDS011;3400;48.506;11.692;2022-07-10T07:54:45;5.13;;;2.80;;
6725;SDS011;3400;48.506;11.692;2022-07-10T07:57:11;2.47;;;2.17;;
6725;SDS011;3400;48.506;11.692;2022-07-10T07:59:37;2.93;;;2.20;;
6725;SDS011;3400;48.506;11.692;2022-07-10T08:02:04;4.20;;;2.53;;
6725;SDS011;3400;48.506;11.692;2022-07-10T08:04:31;2.90;;;2.07;;
6725;SDS011;3400;48.506;11.692;2022-07-10T08:06:57;5.97;;;2.03;;
6725;SDS011;3400;48.506;11.692;2022-07-10T08:09:23;7.07;;;2.03;;
6725;SDS011;3400;48.506;11.692;2022-07-10T08:11:49;3.43;;;2.30;;
6725;SDS011;3400;48.506;11.692;2022-07-10T08:14:15;5.07;;;1.80;;
6725;SDS011;3400;48.506;11.692;2022-07-10T08:16:40;4.47;;;1.90;;
6725;SDS011;3400;48.506;11.692;2022-07-10T08:19:06;3.67;;;1.87;;
6725;SDS011;3400;48.506;11.692;2022-07-10T08:21:32;2.63;;;1.73;;
6725;SDS011;3400;48.506;11.692;2022-07-10T08:23:59;3.57;;;2.20;;
6725;SDS011;3400;48.506;11.692;2022-07-10T08:26:26;3.87;;;1.90;;
6725;SDS011;3400;48.506;11.692;2022-07-10T08:28:52;4.40;;;1.93;;
6725;SDS011;3400;48.506;11.692;2022-07-10T08:31:18;5.97;;;2.00;;
6725;SDS011;3400;48.506;11.692;2022-07-10T08:33:44;2.67;;;1.73;;
6725;SDS011;3400;48.506;11.692;2022-07-10T08:36:10;4.50;;;1.57;;
6725;SDS011;3400;48.506;11.692;2022-07-10T08:38:36;2.80;;;1.97;;
6725;SDS011;3400;48.506;11.692;2022-07-10T08:41:03;4.03;;;1.50;;
6725;SDS011;3400;48.506;11.692;2022-07-10T08:43:30;4.30;;;1.77;;
6725;SDS011;3400;48.506;11.692;2022-07-10T08:45:56;2.20;;;1.47;;
6725;SDS011;3400;48.506;11.692;2022-07-10T08:48:24;4.93;;;1.53;;
6725;SDS011;3400;48.506;11.692;2022-07-10T08:50:53;2.87;;;1.33;;
6725;SDS011;3400;48.506;11.692;2022-07-10T08:53:29;6.90;;;2.50;;
6725;SDS011;3400;48.506;11.692;2022-07-10T08:55:55;2.93;;;1.73;;
6725;SDS011;3400;48.506;11.692;2022-07-10T08:58:22;3.73;;;1.47;;
6725;SDS011;3400;48.506;11.692;2022-07-10T09:00:48;3.67;;;1.60;;
6725;SDS011;3400;48.506;11.692;2022-07-10T09:03:14;1.97;;;1.40;;
6725;SDS011;3400;48.506;11.692;2022-07-10T09:05:40;3.90;;;2.07;;
6725;SDS011;3400;48.506;11.692;2022-07-10T09:08:23;4.80;;;1.80;;
6725;SDS011;3400;48.506;11.692;2022-07-10T09:10:49;2.07;;;1.60;;
6725;SDS011;3400;48.506;11.692;2022-07-10T09:13:16;2.63;;;1.57;;
6725;SDS011;3400;48.506;11.692;2022-07-10T09:15:47;1.53;;;1.43;;
6725;SDS011;3400;48.506;11.692;2022-07-10T09:18:18;2.70;;;1.40;;
6725;SDS011;3400;48.506;11.692;2022-07-10T09:20:45;2.07;;;1.50;;
6725;SDS011;3400;48.506;11.692;2022-07-10T09:23:21;3.87;;;1.60;;
6725;SDS011;3400;48.506;11.692;2022-07-10T09:25:48;1.80;;;1.40;;
6725;SDS011;3400;48.506;11.692;2022-07-10T09:28:21;2.57;;;1.47;;
6725;SDS011;3400;48.506;11.692;2022-07-10T09:30:48;5.97;;;1.90;;
6725;SDS011;3400;48.506;11.692;2022-07-10T09:33:24;6.17;;;1.73;;
6725;SDS011;3400;48.506;11.692;2022-07-10T09:41:11;1.63;;;1.33;;
6725;SDS011;3400;48.506;11.692;2022-07-10T09:46:16;5.20;;;1.77;;
6725;SDS011;3400;48.506;11.692;2022-07-10T09:48:42;2.17;;;1.60;;
6725;SDS011;3400;48.506;11.692;2022-07-10T09:51:09;2.50;;;1.40;;
6725;SDS011;3400;48.506;11.692;2022-07-10T09:53:39;4.13;;;1.53;;
6725;SDS011;3400;48.506;11.692;2022-07-10T09:56:05;2.40;;;1.50;;
6725;SDS011;3400;48.506;11.692;2022-07-10T09:58:33;2.90;;;1.30;;
6725;SDS011;3400;48.506;11.692;2022-07-10T10:01:01;2.80;;;1.47;;
6725;SDS011;3400;48.506;11.692;2022-07-10T10:03:27;5.00;;;1.90;;
6725;SDS011;3400;48.506;11.692;2022-07-10T10:05:55;1.60;;;1.50;;
6725;SDS011;3400;48.506;11.692;2022-07-10T10:08:29;7.03;;;1.80;;
6725;SDS011;3400;48.506;11.692;2022-07-10T10:10:56;2.77;;;1.20;;
6725;SDS011;3400;48.506;11.692;2022-07-10T10:13:23;7.67;;;1.50;;
6725;SDS011;3400;48.506;11.692;2022-07-10T10:15:52;4.43;;;1.47;;
6725;SDS011;3400;48.506;11.692;2022-07-10T10:18:19;2.10;;;1.20;;
6725;SDS011;3400;48.506;11.692;2022-07-10T10:20:45;2.27;;;1.73;;
6725;SDS011;3400;48.506;11.692;2022-07-10T10:23:13;4.83;;;1.63;;
6725;SDS011;3400;48.506;11.692;2022-07-10T10:25:40;2.90;;;1.57;;
6725;SDS011;3400;48.506;11.692;2022-07-10T10:28:08;1.67;;;1.47;;
6725;SDS011;3400;48.506;11.692;2022-07-10T10:30:38;5.00;;;1.60;;
6725;SDS011;3400;48.506;11.692;2022-07-10T10:35:49;2.87;;;1.33;;
6725;SDS011;3400;48.506;11.692;2022-07-10T10:38:16;2.23;;;1.10;;
6725;SDS011;3400;48.506;11.692;2022-07-10T10:40:42;2.90;;;1.03;;
6725;SDS011;3400;48.506;11.692;2022-07-10T10:43:21;1.47;;;1.10;;
6725;SDS011;3400;48.506;11.692;2022-07-10T10:45:48;2.90;;;1.40;;
6725;SDS011;3400;48.506;11.692;2022-07-10T10:48:15;3.07;;;1.23;;
6725;SDS011;3400;48.506;11.692;2022-07-10T10:50:48;4.07;;;1.13;;
6725;SDS011;3400;48.506;11.692;2022-07-10T10:55:41;0.83;;;0.77;;
6725;SDS011;3400;48.506;11.692;2022-07-10T10:58:16;1.60;;;1.10;;
6725;SDS011;3400;48.506;11.692;2022-07-10T11:00:43;2.00;;;0.97;;
6725;SDS011;3400;48.506;11.692;2022-07-10T11:03:13;3.10;;;1.17;;
6725;SDS011;3400;48.506;11.692;2022-07-10T11:05:40;2.90;;;1.33;;
6725;SDS011;3400;48.506;11.692;2022-07-10T11:08:09;4.07;;;1.00;;
6725;SDS011;3400;48.506;11.692;2022-07-10T11:10:37;1.23;;;1.10;;
6725;SDS011;3400;48.506;11.692;2022-07-10T11:15:31;1.17;;;1.03;;
6725;SDS011;3400;48.506;11.692;2022-07-10T11:18:08;6.97;;;1.00;;
6725;SDS011;3400;48.506;11.692;2022-07-10T11:20:35;2.43;;;1.00;;
6725;SDS011;3400;48.506;11.692;2022-07-10T11:25:39;1.17;;;0.80;;
6725;SDS011;3400;48.506;11.692;2022-07-10T11:28:10;2.63;;;1.27;;
6725;SDS011;3400;48.506;11.692;2022-07-10T11:30:48;2.20;;;1.10;;
6725;SDS011;3400;48.506;11.692;2022-07-10T11:33:15;3.80;;;0.90;;
6725;SDS011;3400;48.506;11.692;2022-07-10T11:35:44;2.93;;;1.23;;
6725;SDS011;3400;48.506;11.692;2022-07-10T11:38:11;1.50;;;0.87;;
6725;SDS011;3400;48.506;11.692;2022-07-10T11:40:37;3.20;;;1.10;;
6725;SDS011;3400;48.506;11.692;2022-07-10T11:43:03;3.27;;;1.00;;
6725;SDS011;3400;48.506;11.692;2022-07-10T11:45:32;3.27;;;0.90;;
6725;SDS011;3400;48.506;11.692;2022-07-10T11:48:03;2.03;;;1.23;;
6725;SDS011;3400;48.506;11.692;2022-07-10T11:50:36;1.97;;;1.00;;
6725;SDS011;3400;48.506;11.692;2022-07-10T11:53:03;0.77;;;0.70;;
6725;SDS011;3400;48.506;11.692;2022-07-10T11:55:29;1.73;;;0.90;;
6725;SDS011;3400;48.506;11.692;2022-07-10T11:57:56;2.87;;;1.10;;
6725;SDS011;3400;48.506;11.692;2022-07-10T12:00:23;2.73;;;1.20;;
6725;SDS011;3400;48.506;11.692;2022-07-10T12:05:45;4.67;;;1.47;;
6725;SDS011;3400;48.506;11.692;2022-07-10T12:08:11;2.07;;;1.10;;
6725;SDS011;3400;48.506;11.692;2022-07-10T12:10:40;0.77;;;0.70;;
6725;SDS011;3400;48.506;11.692;2022-07-10T12:13:08;1.43;;;0.80;;
6725;SDS011;3400;48.506;11.692;2022-07-10T12:15:39;3.53;;;1.00;;
6725;SDS011;3400;48.506;11.692;2022-07-10T12:18:09;2.03;;;1.27;;
6725;SDS011;3400;48.506;11.692;2022-07-10T12:20:40;1.80;;;0.80;;
6725;SDS011;3400;48.506;11.692;2022-07-10T12:23:10;2.60;;;0.93;;
6725;SDS011;3400;48.506;11.692;2022-07-10T12:25:37;1.73;;;1.27;;
6725;SDS011;3400;48.506;11.692;2022-07-10T12:28:03;1.57;;;1.00;;
6725;SDS011;3400;48.506;11.692;2022-07-10T12:30:36;1.37;;;0.90;;
6725;SDS011;3400;48.506;11.692;2022-07-10T12:33:21;2.20;;;0.80;;
6725;SDS011;3400;48.506;11.692;2022-07-10T12:35:57;0.67;;;0.63;;
6725;SDS011;3400;48.506;11.692;2022-07-10T12:38:28;2.03;;;0.80;;
6725;SDS011;3400;48.506;11.692;2022-07-10T12:41:09;1.40;;;0.90;;
6725;SDS011;3400;48.506;11.692;2022-07-10T12:43:36;1.23;;;1.00;;
6725;SDS011;3400;48.506;11.692;2022-07-10T12:48:38;1.90;;;0.80;;
6725;SDS011;3400;48.506;11.692;2022-07-10T12:51:25;2.57;;;1.10;;
6725;SDS011;3400;48.506;11.692;2022-07-10T12:53:51;4.37;;;1.07;;
6725;SDS011;3400;48.506;11.692;2022-07-10T12:56:31;4.77;;;1.03;;
6725;SDS011;3400;48.506;11.692;2022-07-10T13:04:51;0.93;;;0.87;;
6725;SDS011;3400;48.506;11.692;2022-07-10T13:07:18;2.63;;;1.00;;
6725;SDS011;3400;48.506;11.692;2022-07-10T13:09:46;1.77;;;0.80;;
6725;SDS011;3400;48.506;11.692;2022-07-10T13:12:15;2.87;;;0.90;;
6725;SDS011;3400;48.506;11.692;2022-07-10T13:14:41;2.57;;;0.90;;
6725;SDS011;3400;48.506;11.692;2022-07-10T13:17:07;2.10;;;1.30;;
6725;SDS011;3400;48.506;11.692;2022-07-10T13:19:33;2.30;;;1.00;;
6725;SDS011;3400;48.506;11.692;2022-07-10T13:21:59;0.80;;;0.80;;
6725;SDS011;3400;48.506;11.692;2022-07-10T13:24:25;1.10;;;0.80;;
6725;SDS011;3400;48.506;11.692;2022-07-10T13:26:53;1.47;;;0.80;;
6725;SDS011;3400;48.506;11.692;2022-07-10T13:29:22;1.63;;;0.67;;
6725;SDS011;3400;48.506;11.692;2022-07-10T13:31:48;4.47;;;1.20;;
6725;SDS011;3400;48.506;11.692;2022-07-10T13:34:14;2.50;;;0.90;;
6725;SDS011;3400;48.506;11.692;2022-07-10T13:36:40;1.70;;;1.00;;
6725;SDS011;3400;48.506;11.692;2022-07-10T13:39:06;1.27;;;0.80;;
6725;SDS011;3400;48.506;11.692;2022-07-10T13:41:32;2.20;;;0.70;;
6725;SDS011;3400;48.506;11.692;2022-07-10T13:43:58;0.93;;;0.83;;
6725;SDS011;3400;48.506;11.692;2022-07-10T13:46:26;1.50;;;0.80;;
6725;SDS011;3400;48.506;11.692;2022-07-10T13:48:52;1.60;;;0.70;;
6725;SDS011;3400;48.506;11.692;2022-07-10T13:51:18;2.67;;;0.87;;
6725;SDS011;3400;48.506;11.692;2022-07-10T13:53:44;1.63;;;0.90;;
6725;SDS011;3400;48.506;11.692;2022-07-10T13:56:10;6.93;;;2.20;;
6725;SDS011;3400;48.506;11.692;2022-07-10T13:58:36;7.83;;;3.07;;
6725;SDS011;3400;48.506;11.692;2022-07-10T14:01:03;1.20;;;1.10;;
6725;SDS011;3400;48.506;11.692;2022-07-10T14:03:30;6.60;;;2.57;;
6725;SDS011;3400;48.506;11.692;2022-07-10T14:05:56;4.37;;;2.53;;
6725;SDS011;3400;48.506;11.692;2022-07-10T14:08:23;2.33;;;1.70;;
6725;SDS011;3400;48.506;11.692;2022-07-10T14:10:49;4.53;;;1.90;;
6725;SDS011;3400;48.506;11.692;2022-07-10T14:13:15;1.83;;;0.90;;
6725;SDS011;3400;48.506;11.692;2022-07-10T14:15:41;3.23;;;1.20;;
6725;SDS011;3400;48.506;11.692;2022-07-10T14:18:09;1.33;;;0.80;;
6725;SDS011;3400;48.506;11.692;2022-07-10T14:20:36;1.47;;;0.63;;
6725;SDS011;3400;48.506;11.692;2022-07-10T14:23:20;2.23;;;0.80;;
6725;SDS011;3400;48.506;11.692;2022-07-10T14:25:47;1.37;;;1.00;;
6725;SDS011;3400;48.506;11.692;2022-07-10T14:28:13;2.47;;;1.00;;
6725;SDS011;3400;48.506;11.692;2022-07-10T14:30:42;3.37;;;0.93;;
6725;SDS011;3400;48.506;11.692;2022-07-10T14:33:08;1.53;;;0.90;;
6725;SDS011;3400;48.506;11.692;2022-07-10T14:35:34;2.37;;;0.70;;
6725;SDS011;3400;48.506;11.692;2022-07-10T14:38:00;2.87;;;0.70;;
6725;SDS011;3400;48.506;11.692;2022-07-10T14:40:26;1.33;;;0.90;;
6725;SDS011;3400;48.506;11.692;2022-07-10T14:42:52;4.43;;;3.00;;
6725;SDS011;3400;48.506;11.692;2022-07-10T14:45:21;15.20;;;10.97;;
6725;SDS011;3400;48.506;11.692;2022-07-10T14:47:49;23.10;;;20.37;;
6725;SDS011;3400;48.506;11.692;2022-07-10T14:50:15;107.37;;;96.73;;
6725;SDS011;3400;48.506;11.692;2022-07-10T14:52:42;91.97;;;83.33;;
6725;SDS011;3400;48.506;11.692;2022-07-10T14:55:08;54.83;;;49.93;;
6725;SDS011;3400;48.506;11.692;2022-07-10T14:57:34;43.70;;;39.23;;
6725;SDS011;3400;48.506;11.692;2022-07-10T15:00:00;18.60;;;15.30;;
6725;SDS011;3400;48.506;11.692;2022-07-10T15:02:26;12.00;;;10.93;;
6725;SDS011;3400;48.506;11.692;2022-07-10T15:04:52;5.87;;;4.10;;
6725;SDS011;3400;48.506;11.692;2022-07-10T15:07:18;2.93;;;2.37;;
6725;SDS011;3400;48.506;11.692;2022-07-10T15:09:44;3.20;;;2.40;;
6725;SDS011;3400;48.506;11.692;2022-07-10T15:12:10;5.33;;;2.93;;
6725;SDS011;3400;48.506;11.692;2022-07-10T15:14:36;2.03;;;1.80;;
6725;SDS011;3400;48.506;11.692;2022-07-10T15:17:02;1.30;;;1.20;;
6725;SDS011;3400;48.506;11.692;2022-07-10T15:19:28;2.53;;;1.20;;
6725;SDS011;3400;48.506;11.692;2022-07-10T15:21:55;1.50;;;1.40;;
6725;SDS011;3400;48.506;11.692;2022-07-10T15:24:21;2.30;;;1.57;;
6725;SDS011;3400;48.506;11.692;2022-07-10T15:26:47;3.03;;;1.20;;